Time;durP1;ratioP1;P1;durP2;ratioP2;P2;SDS_P1;SDS_P2;PMS_P1;PMS_P2;Temp;Humidity;BMP_temperature;BMP_pressure;BME280_temperature;BME280_humidity;BME280_pressure;Samples;Min_cycle;Max_cycle;Signal;HPM_P1;HPM_P2
2023/01/05 00:01:43;;;;;;;;;0.00;0.00;;;;;14.45;73.60;101934.41;5060548;28;45228;-64
2023/01/05 00:04:09;;;;;;;;;1.25;1.25;;;;;14.45;73.43;101937.03;5060541;28;45201;-63
2023/01/05 00:06:36;;;;;;;;;0.00;0.00;;;;;14.44;73.26;101936.19;5060904;27;45240;-64
2023/01/05 00:09:03;;;;;;;;;1.00;1.00;;;;;14.44;73.41;101943.25;5060210;28;45315;-64
2023/01/05 00:23:05;;;;;;;;;0.00;0.00;;;;;14.49;73.35;101956.41;5057855;28;45561;-64
2023/01/05 00:25:35;;;;;;;;;0.50;0.50;;;;;14.50;73.46;101937.84;5050604;28;45285;-64
2023/01/05 00:28:01;;;;;;;;;0.00;0.00;;;;;14.51;73.81;101944.91;5060049;28;45313;-64
2023/01/05 00:30:30;;;;;;;;;2.00;0.00;;;;;14.52;73.69;101941.38;5060288;28;45363;-63
2023/01/05 00:32:55;;;;;;;;;1.00;1.00;;;;;14.49;73.11;101933.50;5059988;27;45283;-64
2023/01/05 00:35:21;;;;;;;;;0.00;0.00;;;;;14.49;73.42;101941.41;5075880;28;45244;-64
2023/01/05 00:37:47;;;;;;;;;0.25;0.25;;;;;14.49;73.30;101946.72;5060067;28;45325;-64
2023/01/05 00:40:15;;;;;;;;;0.00;0.00;;;;;14.45;73.71;101944.97;5060190;28;45278;-64
2023/01/05 00:42:41;;;;;;;;;0.00;0.00;;;;;14.44;73.26;101935.31;5059952;28;46269;-64
2023/01/05 00:45:09;;;;;;;;;0.00;0.00;;;;;14.45;73.09;101937.03;5075673;28;45338;-64
2023/01/05 00:47:35;;;;;;;;;0.00;0.00;;;;;14.41;73.26;101933.56;5060028;28;45356;-64
2023/01/05 00:50:00;;;;;;;;;0.00;0.00;;;;;14.44;73.58;101938.81;5075741;28;45242;-64
2023/01/05 00:52:26;;;;;;;;;2.00;0.00;;;;;14.43;73.33;101941.50;5059573;28;45219;-64
2023/01/05 00:54:51;;;;;;;;;0.00;0.00;;;;;14.45;73.22;101945.88;5060043;28;45235;-63
2023/01/05 00:57:16;;;;;;;;;0.00;0.00;;;;;14.47;73.63;101949.34;5059860;28;45165;-64
2023/01/05 00:59:42;;;;;;;;;0.00;0.00;;;;;14.46;73.34;101944.09;5060143;28;45208;-63
2023/01/05 01:02:08;;;;;;;;;0.00;0.00;;;;;14.44;73.29;101943.25;5059884;28;46457;-64
2023/01/05 01:04:34;;;;;;;;;1.00;0.00;;;;;14.45;73.61;101943.22;5060112;28;45305;-64
2023/01/05 01:07:00;;;;;;;;;0.00;0.00;;;;;14.43;73.61;101934.41;5059716;28;45443;-64
2023/01/05 01:09:26;;;;;;;;;0.00;0.00;;;;;14.43;73.45;101942.34;5059958;28;45308;-64
2023/01/05 01:11:51;;;;;;;;;0.00;0.00;;;;;14.43;73.45;101945.00;5059391;28;45315;-64
2023/01/05 01:14:17;;;;;;;;;1.00;1.00;;;;;14.43;73.41;101937.06;5059826;28;45241;-64
2023/01/05 01:16:43;;;;;;;;;0.00;0.00;;;;;14.43;73.90;101938.84;5058413;28;45395;-65
2023/01/05 01:19:17;;;;;;;;;0.00;0.00;;;;;14.42;73.41;101935.31;5069618;28;45218;-64
2023/01/05 01:21:42;;;;;;;;;0.00;0.00;;;;;14.43;73.33;101941.50;5059244;28;46728;-64
2023/01/05 01:24:15;;;;;;;;;1.00;1.00;;;;;14.44;73.66;101937.97;5059418;28;45391;-63
2023/01/05 01:26:40;;;;;;;;;1.00;1.00;;;;;14.42;73.64;101937.94;5059521;28;45357;-63
2023/01/05 01:29:06;;;;;;;;;3.00;2.00;;;;;14.42;73.71;101942.38;5059701;28;45340;-63
2023/01/05 01:31:31;;;;;;;;;1.50;1.00;;;;;14.42;73.41;101940.59;5074943;28;47030;-63
2023/01/05 01:33:56;;;;;;;;;0.00;0.00;;;;;14.42;73.67;101945.03;5059597;28;45350;-63
2023/01/05 01:36:22;;;;;;;;;0.75;0.00;;;;;14.38;73.28;101945.97;5059536;28;45300;-63
2023/01/05 01:38:47;;;;;;;;;1.00;1.00;;;;;14.38;73.36;101938.88;5059315;28;45315;-64
2023/01/05 01:41:12;;;;;;;;;0.50;0.50;;;;;14.39;73.76;101939.75;5059018;28;46286;-63
2023/01/05 01:43:46;;;;;;;;;0.00;0.00;;;;;14.38;72.93;101938.88;5059346;28;45508;-63
2023/01/05 01:46:13;;;;;;;;;0.25;0.00;;;;;14.37;73.11;101949.50;5059278;28;45351;-63
2023/01/05 01:48:46;;;;;;;;;0.00;0.00;;;;;14.34;73.21;101941.56;5059269;28;45430;-63
2023/01/05 01:51:21;;;;;;;;;0.00;0.00;;;;;14.33;72.81;101935.41;5058924;28;45327;-63
2023/01/05 01:53:52;;;;;;;;;2.50;0.75;;;;;14.30;72.39;101952.19;5074419;28;45385;-63
2023/01/05 01:56:21;;;;;;;;;0.75;0.00;;;;;14.32;72.52;101943.38;5074872;27;45442;-64
2023/01/05 01:58:47;;;;;;;;;2.00;1.00;;;;;14.31;72.66;101937.19;5059042;28;45375;-63
2023/01/05 02:01:13;;;;;;;;;2.00;1.00;;;;;14.29;72.96;101949.56;5062465;28;46180;-63
2023/01/05 02:03:39;;;;;;;;;3.00;1.00;;;;;14.28;72.60;101946.03;5062423;28;45323;-64
2023/01/05 02:06:05;;;;;;;;;2.00;0.00;;;;;14.28;73.03;101953.09;5078459;28;45438;-63
2023/01/05 02:08:31;;;;;;;;;2.75;1.25;;;;;14.26;72.95;101945.19;5062220;28;45276;-63
2023/01/05 02:11:22;;;;;;;;;0.75;0.75;;;;;14.27;72.83;101952.22;5077868;28;46228;-64
2023/01/05 02:14:05;;;;;;;;;0.00;0.00;;;;;14.29;72.49;101949.56;5062401;28;45419;-64
2023/01/05 02:16:46;;;;;;;;;1.00;1.00;;;;;14.26;72.58;101960.16;5062258;28;45351;-64
2023/01/05 02:19:14;;;;;;;;;1.00;1.00;;;;;14.26;72.62;101957.53;5062293;28;45169;-64
2023/01/05 02:22:04;;;;;;;;;0.00;0.00;;;;;14.26;72.83;101955.78;5061765;28;46228;-64
2023/01/05 02:24:54;;;;;;;;;1.00;1.00;;;;;14.25;72.84;101959.31;5062211;28;45209;-63
2023/01/05 02:27:29;;;;;;;;;1.00;1.00;;;;;14.24;72.64;101964.63;5062076;28;45333;-63
2023/01/05 02:30:09;;;;;;;;;0.00;0.00;;;;;14.26;72.55;101968.09;5062030;28;45332;-64
2023/01/05 02:32:50;;;;;;;;;0.50;0.00;;;;;14.24;72.57;101965.47;5061972;28;45305;-63
2023/01/05 02:35:32;;;;;;;;;0.00;0.00;;;;;14.22;72.94;101966.38;5062155;28;45370;-63
2023/01/05 02:38:05;;;;;;;;;0.00;0.00;;;;;14.22;72.44;101961.97;5077376;28;45264;-64
2023/01/05 02:40:37;;;;;;;;;0.00;0.00;;;;;14.21;72.29;101961.97;5062119;28;45712;-63
2023/01/05 02:43:04;;;;;;;;;2.50;1.50;;;;;14.19;72.76;101969.03;5061666;28;45407;-64
2023/01/05 02:45:29;;;;;;;;;0.00;0.00;;;;;14.19;72.76;101959.34;5061869;28;45197;-64
2023/01/05 02:47:55;;;;;;;;;2.50;1.00;;;;;14.20;72.15;101966.41;5061771;28;45483;-63
2023/01/05 02:50:29;;;;;;;;;2.75;1.00;;;;;14.17;72.19;101955.84;5061934;28;45560;-64
2023/01/05 02:53:13;;;;;;;;;0.50;0.00;;;;;14.13;72.40;101954.13;5061206;28;46330;-64
2023/01/05 02:55:39;;;;;;;;;1.00;0.00;;;;;14.12;72.26;101966.50;5061805;28;45219;-63
2023/01/05 02:58:18;;;;;;;;;0.25;0.25;;;;;14.15;72.39;101968.22;5061709;28;45409;-63
2023/01/05 03:00:51;;;;;;;;;0.50;0.50;;;;;14.13;72.15;101962.06;5061633;28;45353;-63
2023/01/05 03:03:34;;;;;;;;;4.00;0.25;;;;;14.09;71.84;101970.91;5061359;28;47434;-63
2023/01/05 03:06:12;;;;;;;;;1.25;1.00;;;;;14.10;71.23;101970.00;5061561;28;45326;-63
2023/01/05 03:08:48;;;;;;;;;3.00;1.25;;;;;14.08;71.44;101963.88;5061324;28;45319;-64
2023/01/05 03:14:22;;;;;;;;;1.25;1.00;;;;;14.07;71.10;101959.47;5061203;28;45248;-64
2023/01/05 03:16:50;;;;;;;;;3.00;0.00;;;;;14.04;70.65;101959.50;5061097;28;45307;-64
2023/01/05 03:36:08;;;;;;;;;1.00;1.00;;;;;14.07;70.46;101964.75;5061043;28;45697;-64
2023/01/05 03:38:40;;;;;;;;;0.50;0.50;;;;;14.07;70.85;101964.75;5076604;27;45336;-64
2023/01/05 03:41:11;;;;;;;;;1.75;1.75;;;;;14.05;70.64;101962.13;5060918;28;45466;-64
2023/01/05 03:43:37;;;;;;;;;1.00;1.00;;;;;14.09;70.38;101970.91;5060848;28;45248;-64
2023/01/05 03:46:17;;;;;;;;;2.50;0.50;;;;;14.09;70.92;101965.63;5060682;28;46117;-64
2023/01/05 03:48:42;;;;;;;;;2.25;0.00;;;;;14.10;70.81;101976.19;5060987;28;45382;-65
2023/01/05 03:51:08;;;;;;;;;1.00;1.00;;;;;14.09;70.55;101970.91;5060829;28;45164;-64
2023/01/05 03:53:33;;;;;;;;;1.00;0.25;;;;;14.09;70.93;101968.28;5060606;28;45501;-63
2023/01/05 03:55:58;;;;;;;;;1.75;0.75;;;;;14.08;70.75;101975.31;5060536;28;45976;-63
2023/01/05 03:58:24;;;;;;;;;1.50;1.00;;;;;14.11;70.66;101985.88;5060751;28;45391;-64
2023/01/05 04:00:49;;;;;;;;;1.67;1.67;;;;;14.10;70.24;101997.34;5060897;28;45280;-63
2023/01/05 04:03:14;;;;;;;;;3.50;2.00;;;;;14.10;70.60;101983.22;5059542;28;45131;-64
2023/01/05 04:05:40;;;;;;;;;1.00;1.00;;;;;14.12;70.33;101984.09;5060481;28;45275;-64
2023/01/05 04:08:05;;;;;;;;;1.00;1.00;;;;;14.10;70.82;101988.50;5059274;28;45359;-64
2023/01/05 04:10:31;;;;;;;;;0.50;0.50;;;;;14.14;70.82;101985.84;5060577;28;45342;-64
2023/01/05 04:12:56;;;;;;;;;0.75;0.75;;;;;14.16;70.46;101985.81;5060526;28;45311;-64
2023/01/05 04:15:22;;;;;;;;;2.00;2.00;;;;;14.18;70.80;101984.03;5056794;28;45437;-64
2023/01/05 04:17:47;;;;;;;;;1.00;1.00;;;;;14.17;70.36;101977.00;5051592;28;45319;-64
2023/01/05 04:20:12;;;;;;;;;2.00;1.00;;;;;14.20;70.30;101982.28;5060557;28;45383;-64
2023/01/05 04:22:38;;;;;;;;;2.00;0.00;;;;;14.18;70.51;101977.88;5059735;28;45280;-64
2023/01/05 04:25:03;;;;;;;;;1.50;1.00;;;;;14.17;70.30;101974.34;5060339;28;45442;-64
2023/01/05 04:27:29;;;;;;;;;3.00;1.75;;;;;14.19;70.12;101969.94;5060243;28;45418;-64
2023/01/05 04:29:54;;;;;;;;;2.50;1.00;;;;;14.19;70.06;101962.00;5059049;28;45230;-64
2023/01/05 04:32:19;;;;;;;;;7.75;2.00;;;;;14.18;70.26;101964.66;5060372;28;45213;-64
2023/01/05 04:34:45;;;;;;;;;4.00;1.00;;;;;14.14;70.15;101971.75;5060139;28;46394;-64
2023/01/05 04:37:10;;;;;;;;;4.00;0.00;;;;;14.15;70.20;101976.16;5059923;28;45402;-63
2023/01/05 04:39:35;;;;;;;;;2.50;0.75;;;;;14.11;70.48;101967.38;5060274;28;45386;-64
2023/01/05 04:42:01;;;;;;;;;2.00;0.00;;;;;14.10;70.26;101975.28;5075728;27;46377;-63
2023/01/05 04:44:26;;;;;;;;;2.00;0.50;;;;;14.10;70.48;101980.56;5060014;28;46027;-64
2023/01/05 04:46:52;;;;;;;;;2.75;1.00;;;;;14.11;70.70;101983.22;5060125;28;45263;-64
2023/01/05 04:49:17;;;;;;;;;1.00;0.75;;;;;14.13;70.39;101986.72;5058914;28;45228;-64
2023/01/05 04:51:42;;;;;;;;;3.25;2.00;;;;;14.09;70.06;101985.00;5058353;28;45657;-64
2023/01/05 04:54:08;;;;;;;;;3.50;1.00;;;;;14.10;69.99;101972.66;5058562;28;46353;-64
2023/01/05 04:56:34;;;;;;;;;1.67;0.00;;;;;14.12;70.11;101982.34;5059867;28;45358;-64
2023/01/05 04:58:59;;;;;;;;;2.00;1.00;;;;;14.12;69.82;101984.09;5060122;28;45355;-64
2023/01/05 05:01:25;;;;;;;;;2.00;0.00;;;;;14.12;70.62;101984.09;5059969;28;45248;-64
2023/01/05 05:03:50;;;;;;;;;0.00;0.00;;;;;14.09;70.22;101971.78;5059743;28;45925;-64
2023/01/05 05:06:16;;;;;;;;;1.25;0.00;;;;;14.11;70.43;101982.34;5059828;28;45315;-64
2023/01/05 05:08:41;;;;;;;;;1.00;1.00;;;;;14.13;70.53;101977.91;5059744;28;45268;-64
2023/01/05 05:11:07;;;;;;;;;0.25;0.25;;;;;14.15;70.30;101973.50;5059613;28;45472;-64
2023/01/05 05:13:32;;;;;;;;;0.00;0.00;;;;;14.15;70.04;101981.44;5059834;28;45402;-64
2023/01/05 05:15:57;;;;;;;;;0.00;0.00;;;;;14.14;69.92;101969.97;5059199;28;45296;-64
2023/01/05 05:18:23;;;;;;;;;1.25;0.00;;;;;14.16;69.77;101969.94;5057973;28;45171;-63
2023/01/05 05:20:50;;;;;;;;;0.75;0.00;;;;;14.17;70.13;101960.28;5059816;28;45231;-63
2023/01/05 05:23:16;;;;;;;;;0.00;0.00;;;;;14.15;70.11;101962.94;5059260;28;46203;-64
2023/01/05 05:25:41;;;;;;;;;1.00;0.00;;;;;14.14;70.43;101969.09;5059694;28;45245;-63
2023/01/05 05:28:06;;;;;;;;;2.50;1.00;;;;;14.11;70.55;101959.44;5059600;28;45212;-64
2023/01/05 05:30:32;;;;;;;;;1.00;1.00;;;;;14.14;69.92;101969.97;5059622;28;45157;-64
2023/01/05 05:32:57;;;;;;;;;0.50;0.00;;;;;14.12;70.07;101957.66;5060067;27;45300;-64
2023/01/05 05:35:22;;;;;;;;;0.25;0.25;;;;;14.11;69.95;101972.66;5077559;28;45699;-64
2023/01/05 05:37:48;;;;;;;;;0.25;0.00;;;;;14.15;70.24;101973.50;5078441;28;45263;-64
2023/01/05 05:40:13;;;;;;;;;1.00;0.25;;;;;14.13;70.00;101977.91;5063137;28;45186;-64
2023/01/05 05:42:39;;;;;;;;;3.25;0.00;;;;;14.17;69.81;101976.13;5062782;28;46089;-64
2023/01/05 05:45:04;;;;;;;;;0.00;0.00;;;;;14.12;70.14;101977.06;5062914;28;45318;-64
2023/01/05 05:47:30;;;;;;;;;1.75;0.75;;;;;14.14;69.85;101972.63;5062999;27;45256;-63
2023/01/05 05:49:55;;;;;;;;;1.75;0.75;;;;;14.13;69.82;101976.13;5078478;28;45433;-63
2023/01/05 05:52:20;;;;;;;;;1.50;0.00;;;;;14.13;69.72;101977.91;5062248;28;47145;-63
2023/01/05 05:54:46;;;;;;;;;0.00;0.00;;;;;14.12;69.96;101978.81;5062905;28;45416;-64
2023/01/05 05:57:11;;;;;;;;;0.00;0.00;;;;;14.13;69.93;101977.91;5062822;28;45301;-65
2023/01/05 05:59:36;;;;;;;;;1.25;0.00;;;;;14.08;69.94;101983.25;5062730;28;45556;-64
2023/01/05 06:02:02;;;;;;;;;1.50;1.00;;;;;14.09;70.43;101987.66;5062601;28;45437;-64
2023/01/05 06:04:27;;;;;;;;;1.00;0.00;;;;;14.08;69.83;101985.03;5062666;28;45321;-63
2023/01/05 06:06:53;;;;;;;;;1.25;0.00;;;;;14.06;70.39;101990.31;5062533;28;45396;-64
2023/01/05 06:09:18;;;;;;;;;0.50;0.50;;;;;14.05;70.43;101992.97;5062706;28;45476;-64
2023/01/05 06:11:43;;;;;;;;;5.00;1.00;;;;;14.06;69.98;101998.25;5062236;28;45203;-64
2023/01/05 06:14:09;;;;;;;;;1.00;1.00;;;;;14.07;70.61;102002.63;5062701;28;45189;-64
2023/01/05 06:16:34;;;;;;;;;2.25;1.00;;;;;14.07;70.57;101999.13;5062435;28;45228;-64
2023/01/05 06:19:00;;;;;;;;;1.00;0.00;;;;;14.10;70.09;102017.59;5062481;28;45189;-64
2023/01/05 06:21:25;;;;;;;;;4.00;4.00;;;;;14.09;70.60;102007.94;5061920;28;46084;-64
2023/01/05 06:23:50;;;;;;;;;3.75;2.00;;;;;14.07;70.21;102009.69;5062471;28;45236;-64
2023/01/05 06:26:16;;;;;;;;;1.00;1.00;;;;;14.06;70.36;102011.47;5062335;28;45312;-63
2023/01/05 06:28:41;;;;;;;;;1.00;1.00;;;;;14.07;70.34;102017.63;5063538;28;45248;-64
2023/01/05 06:31:06;;;;;;;;;0.00;0.00;;;;;14.05;70.63;102015.00;5062064;28;45392;-64
2023/01/05 06:33:32;;;;;;;;;2.00;1.00;;;;;14.07;70.59;102017.63;5062181;28;45344;-64
2023/01/05 06:35:57;;;;;;;;;2.00;1.00;;;;;14.04;70.12;102015.03;5060940;28;45458;-64
2023/01/05 06:38:23;;;;;;;;;1.00;1.00;;;;;14.05;70.22;102016.75;5077558;28;45465;-64
2023/01/05 06:40:49;;;;;;;;;1.50;0.00;;;;;14.02;70.46;102019.44;5062041;28;46286;-64
2023/01/05 06:43:14;;;;;;;;;2.00;1.00;;;;;14.03;70.77;102021.19;5061738;28;45376;-64
2023/01/05 06:45:40;;;;;;;;;0.75;0.75;;;;;14.00;70.74;102026.47;5060429;28;45328;-64
2023/01/05 06:48:05;;;;;;;;;2.25;2.25;;;;;13.98;70.86;102019.44;5062021;28;45367;-64
2023/01/05 06:50:31;;;;;;;;;1.00;0.25;;;;;13.98;70.57;102014.16;5061739;28;45640;-64
2023/01/05 06:52:56;;;;;;;;;1.00;0.00;;;;;13.97;70.94;102028.28;5061518;28;45391;-63
2023/01/05 06:55:22;;;;;;;;;1.00;1.00;;;;;13.98;70.41;102032.66;5061821;28;45435;-63
2023/01/05 06:57:47;;;;;;;;;2.75;2.75;;;;;13.98;70.97;102030.00;5061797;28;45280;-64
2023/01/05 07:00:14;;;;;;;;;3.00;1.00;;;;;13.99;70.92;102030.91;5061687;28;45403;-63
2023/01/05 07:02:39;;;;;;;;;1.00;0.00;;;;;14.01;70.70;102033.53;5060481;28;45787;-63
2023/01/05 07:05:08;;;;;;;;;0.00;0.00;;;;;14.00;70.69;102037.06;5061703;28;45434;-63
2023/01/05 07:07:34;;;;;;;;;1.25;1.00;;;;;14.02;70.58;102038.78;5061457;28;45378;-63
2023/01/05 07:09:59;;;;;;;;;2.75;1.50;;;;;14.04;70.46;102036.16;5061273;28;46295;-64
2023/01/05 07:12:25;;;;;;;;;1.00;1.00;;;;;14.02;70.93;102033.50;5061463;28;45481;-64
2023/01/05 07:14:50;;;;;;;;;0.50;0.00;;;;;14.04;70.24;102034.38;5061495;28;45319;-63
2023/01/05 07:17:15;;;;;;;;;1.25;0.75;;;;;14.02;70.99;102030.00;5048810;28;45316;-64
2023/01/05 07:19:41;;;;;;;;;1.00;1.00;;;;;14.02;70.89;102024.72;5061249;28;46173;-64
2023/01/05 07:22:07;;;;;;;;;2.50;1.00;;;;;14.05;70.80;102037.88;5061326;28;45639;-63
2023/01/05 07:24:32;;;;;;;;;5.00;1.25;;;;;14.05;70.76;102041.44;5061431;28;45315;-64
2023/01/05 07:26:58;;;;;;;;;5.00;1.25;;;;;14.07;70.58;102041.41;5061100;28;45405;-64
2023/01/05 07:29:24;;;;;;;;;1.75;1.75;;;;;14.08;70.70;102040.53;5061106;28;45364;-64
2023/01/05 07:31:51;;;;;;;;;3.00;1.00;;;;;14.08;71.06;102044.03;5061202;28;45234;-64
2023/01/05 07:34:20;;;;;;;;;3.50;2.00;;;;;14.09;70.87;102039.63;5061336;28;45311;-64
2023/01/05 07:36:46;;;;;;;;;6.75;4.75;;;;;14.09;70.74;102040.50;5059620;28;45483;-63
2023/01/05 07:39:12;;;;;;;;;3.50;2.00;;;;;14.09;70.50;102040.50;5060830;28;45408;-63
2023/01/05 07:41:37;;;;;;;;;2.50;2.50;;;;;14.11;70.80;102048.41;5042870;28;45258;-65
2023/01/05 07:44:03;;;;;;;;;1.50;1.50;;;;;14.12;70.98;102040.50;5059811;27;45336;-64
2023/01/05 07:46:29;;;;;;;;;2.50;2.50;;;;;14.12;71.02;102047.53;5076571;28;45280;-64
2023/01/05 07:48:54;;;;;;;;;4.00;2.75;;;;;14.10;70.82;102039.63;5059412;28;45679;-64
2023/01/05 07:51:21;;;;;;;;;2.00;2.00;;;;;14.14;70.57;102051.91;5060735;28;45287;-63
2023/01/05 07:53:46;;;;;;;;;3.00;2.00;;;;;14.15;71.22;102047.53;5059450;28;45262;-63
2023/01/05 07:56:12;;;;;;;;;2.50;2.25;;;;;14.12;70.47;102051.06;5060705;28;45293;-64
2023/01/05 07:58:37;;;;;;;;;3.50;2.00;;;;;14.13;70.83;102059.88;5060015;28;45269;-64
2023/01/05 08:01:05;;;;;;;;;3.00;2.00;;;;;14.14;71.16;102051.91;5060785;28;45236;-63
2023/01/05 08:03:30;;;;;;;;;2.25;1.50;;;;;14.16;70.96;102054.53;5060911;28;45370;-64
2023/01/05 08:05:55;;;;;;;;;13.00;12.00;;;;;14.13;71.20;102057.22;5060553;28;45398;-64
2023/01/05 08:08:21;;;;;;;;;7.00;6.50;;;;;14.14;70.99;102061.63;5060441;28;45421;-63
2023/01/05 08:10:46;;;;;;;;;7.50;5.25;;;;;14.14;70.52;102058.97;5060745;28;45316;-64
2023/01/05 08:15:57;;;;;;;;;5.00;5.00;;;;;14.13;71.31;102058.09;5052339;28;45319;-64
2023/01/05 08:18:22;;;;;;;;;6.50;5.00;;;;;14.16;71.01;102066.88;5056147;28;46272;-63
2023/01/05 08:20:56;;;;;;;;;6.50;5.00;;;;;14.17;70.67;102066.00;5060470;28;45504;-64
2023/01/05 08:23:26;;;;;;;;;6.00;5.50;;;;;14.13;70.74;102054.56;5060136;28;45295;-65
2023/01/05 08:25:52;;;;;;;;;5.00;5.00;;;;;14.13;71.20;102059.88;5060371;28;45157;-63
2023/01/05 08:28:17;;;;;;;;;7.75;6.00;;;;;14.15;71.08;102068.66;5064855;28;47271;-64
2023/01/05 08:30:43;;;;;;;;;10.25;5.75;;;;;14.17;70.83;102064.22;5060484;28;45227;-63
2023/01/05 08:33:09;;;;;;;;;5.75;5.25;;;;;14.19;71.34;102064.22;5060210;28;45212;-63
2023/01/05 08:35:39;;;;;;;;;8.50;5.00;;;;;14.17;71.43;102061.59;5060494;28;45482;-63
2023/01/05 08:38:04;;;;;;;;;5.50;5.50;;;;;14.19;71.10;102067.75;5058284;28;45278;-64
2023/01/05 08:40:30;;;;;;;;;5.25;4.50;;;;;14.17;71.25;102056.31;5058811;28;45270;-64
2023/01/05 08:42:56;;;;;;;;;6.00;5.00;;;;;14.17;71.13;102066.88;5060000;27;45243;-64
2023/01/05 08:45:21;;;;;;;;;5.00;5.00;;;;;14.18;71.27;102067.78;5058824;28;45344;-64
2023/01/05 08:47:47;;;;;;;;;20.75;18.00;;;;;14.19;71.37;102064.22;5059681;28;45518;-63
2023/01/05 08:50:12;;;;;;;;;10.00;8.50;;;;;14.18;71.28;102066.00;5075678;28;45170;-64
2023/01/05 08:52:38;;;;;;;;;16.50;15.50;;;;;14.20;71.36;102071.25;5059504;28;45238;-63
2023/01/05 08:55:06;;;;;;;;;3.25;3.25;;;;;14.21;71.56;102065.09;5058739;28;45531;-63
2023/01/05 08:57:32;;;;;;;;;15.75;13.25;;;;;14.22;71.67;102070.34;5059493;28;45335;-63
2023/01/05 08:59:58;;;;;;;;;7.75;7.00;;;;;14.23;71.48;102065.97;5075403;28;45412;-64
2023/01/05 09:02:24;;;;;;;;;6.00;6.00;;;;;14.25;71.39;102066.81;5059842;28;45420;-64
2023/01/05 09:04:49;;;;;;;;;7.50;7.25;;;;;14.24;71.31;102062.44;5059961;28;45235;-63
2023/01/05 09:07:15;;;;;;;;;5.00;5.00;;;;;14.28;71.65;102075.59;5059426;28;46091;-63
2023/01/05 09:09:40;;;;;;;;;7.25;5.00;;;;;14.30;71.89;102073.81;5062582;28;45283;-64
2023/01/05 09:12:06;;;;;;;;;9.00;7.00;;;;;14.30;71.36;102072.94;5063431;28;45351;-63
2023/01/05 09:14:31;;;;;;;;;4.00;4.00;;;;;14.32;71.55;102065.00;5063377;28;45367;-64
2023/01/05 09:16:56;;;;;;;;;5.75;5.00;;;;;14.33;71.67;102067.63;5058218;28;45330;-64
2023/01/05 09:19:22;;;;;;;;;5.50;5.50;;;;;14.33;71.44;102074.69;5053891;28;45228;-63
2023/01/05 09:21:47;;;;;;;;;9.00;7.25;;;;;14.34;71.70;102073.78;5062958;28;45302;-63
2023/01/05 09:24:13;;;;;;;;;6.50;4.25;;;;;14.33;71.61;102080.00;5063304;28;45628;-63
2023/01/05 09:26:39;;;;;;;;;3.50;3.50;;;;;14.35;71.54;102073.78;5062887;28;46240;-64
2023/01/05 09:29:05;;;;;;;;;6.00;5.00;;;;;14.38;71.89;102075.53;5061928;28;45365;-63
2023/01/05 09:31:30;;;;;;;;;5.00;4.00;;;;;14.38;71.46;102071.09;5063119;28;45300;-63
2023/01/05 09:33:57;;;;;;;;;4.25;4.25;;;;;14.41;71.87;102076.34;5063220;28;45522;-64
2023/01/05 09:36:24;;;;;;;;;3.25;3.00;;;;;14.42;71.53;102074.59;5062763;28;46351;-64
2023/01/05 09:38:55;;;;;;;;;2.00;2.00;;;;;14.40;71.49;102065.78;5062841;28;45220;-64
2023/01/05 09:41:35;;;;;;;;;2.00;2.00;;;;;14.41;71.96;102072.84;5062683;28;45433;-64
2023/01/05 09:44:11;;;;;;;;;1.25;1.25;;;;;14.45;71.93;102077.22;5062894;28;45256;-65
2023/01/05 09:46:40;;;;;;;;;0.50;0.50;;;;;14.46;71.67;102081.59;5062861;28;46163;-64
2023/01/05 09:49:12;;;;;;;;;1.00;1.00;;;;;14.47;71.69;102088.66;5062588;28;45326;-64
2023/01/05 09:51:37;;;;;;;;;1.00;1.00;;;;;14.48;71.81;102085.13;5062432;28;45251;-63
2023/01/05 09:54:03;;;;;;;;;1.00;1.00;;;;;14.47;71.75;102091.31;5062658;28;45248;-64
2023/01/05 09:56:38;;;;;;;;;1.00;1.00;;;;;14.48;72.05;102093.06;5062619;28;45212;-64
2023/01/05 09:59:12;;;;;;;;;2.25;1.50;;;;;14.50;71.57;102083.31;5078131;28;45265;-64
2023/01/05 10:01:39;;;;;;;;;2.00;2.00;;;;;14.51;71.69;102090.38;5078318;28;45364;-64
2023/01/05 10:04:12;;;;;;;;;3.00;2.00;;;;;14.50;71.94;102090.41;5062414;28;45378;-63
2023/01/05 10:06:42;;;;;;;;;2.00;2.00;;;;;14.50;71.54;102091.25;5062240;28;46440;-63
2023/01/05 10:09:15;;;;;;;;;3.00;3.00;;;;;14.56;71.64;102088.56;5062355;28;45455;-64
2023/01/05 10:14:52;;;;;;;;;3.00;3.00;;;;;14.55;71.83;102089.47;5062526;28;45215;-64
2023/01/05 10:17:20;;;;;;;;;2.00;2.00;;;;;14.58;72.11;102086.78;5061384;28;45347;-63
2023/01/05 10:19:46;;;;;;;;;2.50;1.50;;;;;14.63;71.86;102094.69;5061217;28;45398;-64
2023/01/05 10:22:15;;;;;;;;;2.75;2.50;;;;;14.64;71.61;102091.16;5077307;28;45360;-64
2023/01/05 10:24:52;;;;;;;;;4.25;3.00;;;;;14.64;71.87;102093.81;5061987;28;45364;-63
2023/01/05 10:27:36;;;;;;;;;2.00;2.00;;;;;14.65;71.79;102103.50;5061534;28;46335;-64
2023/01/05 10:30:30;;;;;;;;;3.75;3.75;;;;;14.57;71.68;102082.38;5061646;28;45445;-64
2023/01/05 10:32:59;;;;;;;;;3.25;2.00;;;;;14.65;71.61;102094.69;5047693;28;45290;-64
2023/01/05 10:35:46;;;;;;;;;1.00;1.00;;;;;14.68;71.86;102092.91;5061959;27;45279;-65
2023/01/05 10:38:37;;;;;;;;;1.50;1.00;;;;;14.66;71.68;102101.75;5077088;28;48280;-64
2023/01/05 10:41:23;;;;;;;;;2.00;1.50;;;;;14.68;71.99;102086.72;5061646;28;45234;-64
2023/01/05 10:44:09;;;;;;;;;1.50;1.50;;;;;14.71;71.78;102092.00;5062087;28;45244;-64
2023/01/05 10:46:39;;;;;;;;;2.25;2.25;;;;;14.69;71.64;102086.72;5030412;28;45404;-64
2023/01/05 10:49:06;;;;;;;;;3.75;2.75;;;;;14.70;71.58;102079.66;5061705;28;46305;-64
2023/01/05 10:51:32;;;;;;;;;3.50;1.50;;;;;14.68;71.77;102076.13;5061560;28;45490;-64
2023/01/05 10:53:58;;;;;;;;;1.50;1.50;;;;;14.71;71.58;102074.34;5061840;28;45223;-64
2023/01/05 10:56:28;;;;;;;;;1.00;1.00;;;;;14.72;71.73;102073.47;5077535;28;45198;-64
2023/01/05 10:59:08;;;;;;;;;1.00;0.50;;;;;14.73;71.89;102075.22;5061437;28;47125;-64
2023/01/05 11:01:36;;;;;;;;;2.50;2.50;;;;;14.69;72.02;102062.91;5061712;28;45215;-64
2023/01/05 11:04:11;;;;;;;;;0.50;0.50;;;;;14.73;72.26;102067.28;5061559;28;45409;-64
2023/01/05 11:06:37;;;;;;;;;1.00;1.00;;;;;14.74;72.09;102066.41;5061472;28;45271;-64
2023/01/05 11:09:12;;;;;;;;;2.00;2.00;;;;;14.79;72.24;102050.44;5061183;28;46139;-64
2023/01/05 11:11:38;;;;;;;;;2.50;1.50;;;;;14.81;71.86;102051.31;5061266;28;45336;-64
2023/01/05 11:14:05;;;;;;;;;3.50;2.25;;;;;14.85;72.19;102052.16;5061613;28;45261;-64
2023/01/05 11:16:34;;;;;;;;;0.50;0.50;;;;;14.86;71.98;102043.34;5061288;28;45251;-64
2023/01/05 11:19:10;;;;;;;;;2.50;2.50;;;;;14.86;72.17;102028.31;5061071;28;46094;-64
2023/01/05 11:21:43;;;;;;;;;3.00;3.00;;;;;14.93;71.99;102034.41;5060817;28;45450;-64
2023/01/05 11:24:23;;;;;;;;;1.25;0.50;;;;;15.02;72.21;102034.31;5061146;28;45228;-64
2023/01/05 11:26:51;;;;;;;;;1.00;1.00;;;;;15.09;71.80;102032.47;5060942;28;45563;-64
2023/01/05 11:29:18;;;;;;;;;2.00;1.75;;;;;15.12;72.14;102029.78;5061050;28;46292;-64
2023/01/05 11:31:48;;;;;;;;;1.67;0.67;;;;;15.16;72.06;102020.91;5059826;28;45231;-64
2023/01/05 11:34:35;;;;;;;;;2.00;1.75;;;;;15.21;72.25;102029.66;5061370;28;45259;-62
2023/01/05 11:37:10;;;;;;;;;0.75;0.75;;;;;15.30;71.89;102022.50;5076533;28;45474;-63
2023/01/05 11:39:44;;;;;;;;;1.50;1.50;;;;;15.34;71.86;102024.19;5060778;28;45377;-64
2023/01/05 11:42:11;;;;;;;;;3.25;2.25;;;;;15.40;71.66;102024.13;5060995;28;45299;-64
2023/01/05 11:44:38;;;;;;;;;2.00;2.00;;;;;15.35;72.12;102012.72;5076535;28;45506;-64
2023/01/05 11:47:06;;;;;;;;;1.25;1.25;;;;;15.48;72.11;102013.41;5076554;28;45461;-64
2023/01/05 11:49:31;;;;;;;;;1.25;1.25;;;;;15.50;71.91;102014.28;5076456;27;45438;-64
2023/01/05 11:51:57;;;;;;;;;1.75;1.75;;;;;15.53;71.77;102017.72;5060356;28;45346;-65
2023/01/05 11:54:34;;;;;;;;;1.00;1.00;;;;;15.56;71.44;102012.41;5115420;27;45740;-63
2023/01/05 11:57:18;;;;;;;;;0.75;0.75;;;;;15.55;71.08;102010.66;5095838;27;45251;-62
2023/01/05 11:59:46;;;;;;;;;0.75;0.75;;;;;15.57;71.44;102014.16;5097442;27;45307;-62
2023/01/05 12:02:33;;;;;;;;;0.33;0.33;;;;;15.58;71.41;102017.66;5085937;27;45373;-62
2023/01/05 12:05:16;;;;;;;;;0.67;0.67;;;;;15.57;71.23;102014.16;5076806;28;45426;-62
2023/01/05 12:08:09;;;;;;;;;1.00;0.33;;;;;15.54;71.42;102008.88;5076613;27;45222;-62